sensor_id;sensor_type;location;lat;lon;timestamp;P1;durP1;ratioP1;P2;durP2;ratioP2
1837;SDS011;918;50.796;6.772;2022-07-23T00:01:25;19.23;;;17.53;;
1837;SDS011;918;50.796;6.772;2022-07-23T00:03:52;18.17;;;16.47;;
1837;SDS011;918;50.796;6.772;2022-07-23T00:06:19;18.00;;;16.40;;
1837;SDS011;918;50.796;6.772;2022-07-23T00:08:45;18.53;;;16.50;;
1837;SDS011;918;50.796;6.772;2022-07-23T00:11:10;19.20;;;17.60;;
1837;SDS011;918;50.796;6.772;2022-07-23T00:13:35;18.87;;;17.20;;
1837;SDS011;918;50.796;6.772;2022-07-23T00:16:01;19.67;;;17.90;;
1837;SDS011;918;50.796;6.772;2022-07-23T00:18:26;21.30;;;19.47;;
1837;SDS011;918;50.796;6.772;2022-07-23T00:20:52;20.40;;;18.70;;
1837;SDS011;918;50.796;6.772;2022-07-23T00:23:17;19.37;;;17.67;;
1837;SDS011;918;50.796;6.772;2022-07-23T00:25:42;18.43;;;16.73;;
1837;SDS011;918;50.796;6.772;2022-07-23T00:28:09;18.13;;;16.57;;
1837;SDS011;918;50.796;6.772;2022-07-23T00:30:35;19.97;;;18.30;;
1837;SDS011;918;50.796;6.772;2022-07-23T00:33:01;19.43;;;17.60;;
1837;SDS011;918;50.796;6.772;2022-07-23T00:35:29;20.67;;;18.23;;
1837;SDS011;918;50.796;6.772;2022-07-23T00:37:56;20.40;;;18.63;;
1837;SDS011;918;50.796;6.772;2022-07-23T00:40:22;20.43;;;18.63;;
1837;SDS011;918;50.796;6.772;2022-07-23T00:42:48;22.00;;;20.10;;
1837;SDS011;918;50.796;6.772;2022-07-23T00:45:13;23.17;;;21.17;;
1837;SDS011;918;50.796;6.772;2022-07-23T00:47:39;21.90;;;19.80;;
1837;SDS011;918;50.796;6.772;2022-07-23T00:50:05;20.47;;;18.73;;
1837;SDS011;918;50.796;6.772;2022-07-23T00:52:32;22.27;;;20.10;;
1837;SDS011;918;50.796;6.772;2022-07-23T00:54:58;22.30;;;20.30;;
1837;SDS011;918;50.796;6.772;2022-07-23T00:57:23;22.43;;;20.33;;
1837;SDS011;918;50.796;6.772;2022-07-23T00:59:48;21.77;;;19.77;;
1837;SDS011;918;50.796;6.772;2022-07-23T01:02:14;21.67;;;19.73;;
1837;SDS011;918;50.796;6.772;2022-07-23T01:04:39;20.87;;;18.97;;
1837;SDS011;918;50.796;6.772;2022-07-23T01:07:04;20.93;;;19.17;;
1837;SDS011;918;50.796;6.772;2022-07-23T01:09:30;20.97;;;18.87;;
1837;SDS011;918;50.796;6.772;2022-07-23T01:11:56;18.60;;;16.80;;
1837;SDS011;918;50.796;6.772;2022-07-23T01:14:21;19.53;;;17.73;;
1837;SDS011;918;50.796;6.772;2022-07-23T01:16:47;19.43;;;17.50;;
1837;SDS011;918;50.796;6.772;2022-07-23T01:19:13;16.27;;;14.97;;
1837;SDS011;918;50.796;6.772;2022-07-23T01:21:40;16.50;;;15.03;;
1837;SDS011;918;50.796;6.772;2022-07-23T01:24:16;16.93;;;14.47;;
1837;SDS011;918;50.796;6.772;2022-07-23T01:26:44;15.83;;;14.23;;
1837;SDS011;918;50.796;6.772;2022-07-23T01:29:10;14.20;;;12.97;;
1837;SDS011;918;50.796;6.772;2022-07-23T01:31:35;13.00;;;11.90;;
1837;SDS011;918;50.796;6.772;2022-07-23T01:34:01;13.70;;;12.57;;
1837;SDS011;918;50.796;6.772;2022-07-23T01:36:26;12.50;;;11.30;;
1837;SDS011;918;50.796;6.772;2022-07-23T01:38:53;13.50;;;12.30;;
1837;SDS011;918;50.796;6.772;2022-07-23T01:41:18;11.83;;;10.77;;
1837;SDS011;918;50.796;6.772;2022-07-23T01:43:44;12.77;;;11.67;;
1837;SDS011;918;50.796;6.772;2022-07-23T01:46:09;13.37;;;12.07;;
1837;SDS011;918;50.796;6.772;2022-07-23T01:48:34;15.77;;;14.37;;
1837;SDS011;918;50.796;6.772;2022-07-23T01:51:00;15.90;;;14.40;;
1837;SDS011;918;50.796;6.772;2022-07-23T01:53:25;16.40;;;14.93;;
1837;SDS011;918;50.796;6.772;2022-07-23T01:55:50;16.57;;;15.17;;
1837;SDS011;918;50.796;6.772;2022-07-23T01:58:16;17.43;;;15.93;;
1837;SDS011;918;50.796;6.772;2022-07-23T02:00:41;17.07;;;15.30;;
1837;SDS011;918;50.796;6.772;2022-07-23T02:03:06;17.77;;;15.93;;
1837;SDS011;918;50.796;6.772;2022-07-23T02:05:31;16.30;;;14.80;;
1837;SDS011;918;50.796;6.772;2022-07-23T02:07:57;16.17;;;14.10;;
1837;SDS011;918;50.796;6.772;2022-07-23T02:10:24;17.73;;;16.03;;
1837;SDS011;918;50.796;6.772;2022-07-23T02:12:49;17.73;;;16.07;;
1837;SDS011;918;50.796;6.772;2022-07-23T02:15:15;17.57;;;15.93;;
1837;SDS011;918;50.796;6.772;2022-07-23T02:17:40;18.80;;;17.07;;
1837;SDS011;918;50.796;6.772;2022-07-23T02:20:07;18.10;;;16.50;;
1837;SDS011;918;50.796;6.772;2022-07-23T02:22:34;18.67;;;16.10;;
1837;SDS011;918;50.796;6.772;2022-07-23T02:24:59;18.23;;;15.47;;
1837;SDS011;918;50.796;6.772;2022-07-23T02:27:25;17.60;;;16.10;;
1837;SDS011;918;50.796;6.772;2022-07-23T02:29:50;19.27;;;17.40;;
1837;SDS011;918;50.796;6.772;2022-07-23T02:32:15;18.60;;;16.93;;
1837;SDS011;918;50.796;6.772;2022-07-23T02:34:41;17.47;;;15.77;;
1837;SDS011;918;50.796;6.772;2022-07-23T02:37:06;18.50;;;16.73;;
1837;SDS011;918;50.796;6.772;2022-07-23T02:39:33;20.27;;;18.17;;
1837;SDS011;918;50.796;6.772;2022-07-23T02:41:58;19.37;;;17.40;;
1837;SDS011;918;50.796;6.772;2022-07-23T02:44:24;19.90;;;18.20;;
1837;SDS011;918;50.796;6.772;2022-07-23T02:46:49;20.43;;;18.60;;
1837;SDS011;918;50.796;6.772;2022-07-23T02:49:14;21.00;;;19.00;;
1837;SDS011;918;50.796;6.772;2022-07-23T02:51:39;20.30;;;18.40;;
1837;SDS011;918;50.796;6.772;2022-07-23T02:54:05;22.70;;;20.70;;
1837;SDS011;918;50.796;6.772;2022-07-23T02:56:30;22.90;;;20.60;;
1837;SDS011;918;50.796;6.772;2022-07-23T02:58:55;21.83;;;19.87;;
1837;SDS011;918;50.796;6.772;2022-07-23T03:01:20;22.83;;;20.80;;
1837;SDS011;918;50.796;6.772;2022-07-23T03:03:46;21.40;;;19.37;;
1837;SDS011;918;50.796;6.772;2022-07-23T03:06:11;21.47;;;19.37;;
1837;SDS011;918;50.796;6.772;2022-07-23T03:08:36;21.37;;;19.50;;
1837;SDS011;918;50.796;6.772;2022-07-23T03:11:02;23.20;;;21.03;;
1837;SDS011;918;50.796;6.772;2022-07-23T03:13:27;21.83;;;19.87;;
1837;SDS011;918;50.796;6.772;2022-07-23T03:15:52;21.90;;;19.80;;
1837;SDS011;918;50.796;6.772;2022-07-23T03:18:18;25.10;;;22.93;;
1837;SDS011;918;50.796;6.772;2022-07-23T03:20:43;24.53;;;22.20;;
1837;SDS011;918;50.796;6.772;2022-07-23T03:23:08;24.13;;;21.57;;
1837;SDS011;918;50.796;6.772;2022-07-23T03:25:33;26.80;;;24.10;;
1837;SDS011;918;50.796;6.772;2022-07-23T03:27:59;26.17;;;23.50;;
1837;SDS011;918;50.796;6.772;2022-07-23T03:30:24;28.27;;;25.10;;
1837;SDS011;918;50.796;6.772;2022-07-23T03:32:49;29.30;;;26.43;;
1837;SDS011;918;50.796;6.772;2022-07-23T03:35:14;26.13;;;23.30;;
1837;SDS011;918;50.796;6.772;2022-07-23T03:37:40;27.30;;;24.87;;
1837;SDS011;918;50.796;6.772;2022-07-23T03:40:05;28.27;;;25.27;;
1837;SDS011;918;50.796;6.772;2022-07-23T03:42:31;28.43;;;25.63;;
1837;SDS011;918;50.796;6.772;2022-07-23T03:44:56;27.20;;;24.40;;
1837;SDS011;918;50.796;6.772;2022-07-23T03:47:21;25.47;;;22.80;;
1837;SDS011;918;50.796;6.772;2022-07-23T03:49:47;25.93;;;23.33;;
1837;SDS011;918;50.796;6.772;2022-07-23T03:52:14;26.93;;;24.53;;
1837;SDS011;918;50.796;6.772;2022-07-23T03:54:39;26.37;;;23.67;;
1837;SDS011;918;50.796;6.772;2022-07-23T03:57:04;27.70;;;24.70;;
1837;SDS011;918;50.796;6.772;2022-07-23T03:59:30;24.07;;;21.57;;
1837;SDS011;918;50.796;6.772;2022-07-23T04:01:55;26.70;;;24.00;;
1837;SDS011;918;50.796;6.772;2022-07-23T04:04:21;25.97;;;23.60;;
1837;SDS011;918;50.796;6.772;2022-07-23T04:06:46;24.83;;;22.33;;
1837;SDS011;918;50.796;6.772;2022-07-23T04:09:11;26.97;;;24.27;;
1837;SDS011;918;50.796;6.772;2022-07-23T04:11:36;26.77;;;23.97;;
1837;SDS011;918;50.796;6.772;2022-07-23T04:14:02;26.17;;;23.37;;
1837;SDS011;918;50.796;6.772;2022-07-23T04:16:27;24.93;;;22.53;;
1837;SDS011;918;50.796;6.772;2022-07-23T04:18:53;26.93;;;24.13;;
1837;SDS011;918;50.796;6.772;2022-07-23T04:21:18;27.20;;;24.40;;
1837;SDS011;918;50.796;6.772;2022-07-23T04:23:44;28.20;;;25.60;;
1837;SDS011;918;50.796;6.772;2022-07-23T04:26:09;27.10;;;24.60;;
1837;SDS011;918;50.796;6.772;2022-07-23T04:28:34;25.40;;;22.93;;
1837;SDS011;918;50.796;6.772;2022-07-23T04:30:59;26.80;;;24.30;;
1837;SDS011;918;50.796;6.772;2022-07-23T04:33:25;27.93;;;25.13;;
1837;SDS011;918;50.796;6.772;2022-07-23T04:35:50;25.87;;;23.33;;
1837;SDS011;918;50.796;6.772;2022-07-23T04:38:15;24.73;;;22.33;;
1837;SDS011;918;50.796;6.772;2022-07-23T04:40:41;26.20;;;23.67;;
1837;SDS011;918;50.796;6.772;2022-07-23T04:43:06;27.80;;;25.10;;
1837;SDS011;918;50.796;6.772;2022-07-23T04:45:31;26.40;;;24.07;;
1837;SDS011;918;50.796;6.772;2022-07-23T04:47:56;25.37;;;22.93;;
1837;SDS011;918;50.796;6.772;2022-07-23T04:50:22;26.07;;;23.67;;
1837;SDS011;918;50.796;6.772;2022-07-23T04:52:48;27.00;;;24.50;;
1837;SDS011;918;50.796;6.772;2022-07-23T04:55:13;26.33;;;23.70;;
1837;SDS011;918;50.796;6.772;2022-07-23T04:57:39;28.93;;;26.17;;
1837;SDS011;918;50.796;6.772;2022-07-23T05:00:04;27.07;;;24.40;;
1837;SDS011;918;50.796;6.772;2022-07-23T05:02:30;26.17;;;23.70;;
1837;SDS011;918;50.796;6.772;2022-07-23T05:04:55;25.90;;;23.70;;
1837;SDS011;918;50.796;6.772;2022-07-23T05:07:21;25.40;;;23.00;;
1837;SDS011;918;50.796;6.772;2022-07-23T05:09:46;24.97;;;22.60;;
1837;SDS011;918;50.796;6.772;2022-07-23T05:12:11;24.27;;;21.93;;
1837;SDS011;918;50.796;6.772;2022-07-23T05:14:37;26.70;;;24.20;;
1837;SDS011;918;50.796;6.772;2022-07-23T05:17:02;26.60;;;23.83;;
1837;SDS011;918;50.796;6.772;2022-07-23T05:19:27;24.07;;;21.97;;
1837;SDS011;918;50.796;6.772;2022-07-23T05:21:52;23.60;;;21.70;;
1837;SDS011;918;50.796;6.772;2022-07-23T05:24:18;23.40;;;21.40;;
1837;SDS011;918;50.796;6.772;2022-07-23T05:26:43;21.03;;;19.23;;
1837;SDS011;918;50.796;6.772;2022-07-23T05:29:08;22.80;;;20.80;;
1837;SDS011;918;50.796;6.772;2022-07-23T05:31:33;22.43;;;20.20;;
1837;SDS011;918;50.796;6.772;2022-07-23T05:33:59;21.50;;;19.27;;
1837;SDS011;918;50.796;6.772;2022-07-23T05:36:24;21.23;;;19.23;;
1837;SDS011;918;50.796;6.772;2022-07-23T05:38:49;20.60;;;18.80;;
1837;SDS011;918;50.796;6.772;2022-07-23T05:41:15;20.07;;;18.33;;
1837;SDS011;918;50.796;6.772;2022-07-23T05:43:40;21.20;;;19.50;;
1837;SDS011;918;50.796;6.772;2022-07-23T05:46:05;20.63;;;18.90;;
1837;SDS011;918;50.796;6.772;2022-07-23T05:48:30;21.60;;;19.60;;
1837;SDS011;918;50.796;6.772;2022-07-23T05:50:56;21.50;;;19.50;;
1837;SDS011;918;50.796;6.772;2022-07-23T05:53:21;21.13;;;19.23;;
1837;SDS011;918;50.796;6.772;2022-07-23T05:55:47;21.77;;;19.73;;
1837;SDS011;918;50.796;6.772;2022-07-23T05:58:12;21.37;;;19.37;;
1837;SDS011;918;50.796;6.772;2022-07-23T06:00:37;23.03;;;20.93;;
1837;SDS011;918;50.796;6.772;2022-07-23T06:03:03;20.97;;;19.20;;
1837;SDS011;918;50.796;6.772;2022-07-23T06:05:28;22.30;;;20.20;;
1837;SDS011;918;50.796;6.772;2022-07-23T06:07:53;21.67;;;19.50;;
1837;SDS011;918;50.796;6.772;2022-07-23T06:10:19;21.30;;;19.17;;
1837;SDS011;918;50.796;6.772;2022-07-23T06:12:44;22.37;;;20.40;;
1837;SDS011;918;50.796;6.772;2022-07-23T06:15:10;20.90;;;18.93;;
1837;SDS011;918;50.796;6.772;2022-07-23T06:17:36;19.83;;;18.03;;
1837;SDS011;918;50.796;6.772;2022-07-23T06:20:04;21.90;;;19.90;;
1837;SDS011;918;50.796;6.772;2022-07-23T06:22:30;18.53;;;17.00;;
1837;SDS011;918;50.796;6.772;2022-07-23T06:24:56;18.53;;;17.03;;
1837;SDS011;918;50.796;6.772;2022-07-23T06:27:21;18.50;;;16.97;;
1837;SDS011;918;50.796;6.772;2022-07-23T06:29:46;18.57;;;16.77;;
1837;SDS011;918;50.796;6.772;2022-07-23T06:32:12;18.60;;;17.00;;
1837;SDS011;918;50.796;6.772;2022-07-23T06:34:37;18.30;;;16.70;;
1837;SDS011;918;50.796;6.772;2022-07-23T06:37:02;16.13;;;14.63;;
1837;SDS011;918;50.796;6.772;2022-07-23T06:39:28;18.83;;;17.17;;
1837;SDS011;918;50.796;6.772;2022-07-23T06:41:53;17.97;;;16.40;;
1837;SDS011;918;50.796;6.772;2022-07-23T06:44:18;16.27;;;14.80;;
1837;SDS011;918;50.796;6.772;2022-07-23T06:46:44;22.10;;;15.73;;
1837;SDS011;918;50.796;6.772;2022-07-23T06:49:09;16.50;;;14.90;;
1837;SDS011;918;50.796;6.772;2022-07-23T06:51:34;15.97;;;14.50;;
1837;SDS011;918;50.796;6.772;2022-07-23T06:53:59;15.03;;;13.80;;
1837;SDS011;918;50.796;6.772;2022-07-23T06:56:25;15.33;;;14.07;;
1837;SDS011;918;50.796;6.772;2022-07-23T06:58:50;13.97;;;12.77;;
1837;SDS011;918;50.796;6.772;2022-07-23T07:01:15;12.97;;;11.83;;
1837;SDS011;918;50.796;6.772;2022-07-23T07:03:41;11.90;;;11.00;;
1837;SDS011;918;50.796;6.772;2022-07-23T07:06:06;12.23;;;11.33;;
1837;SDS011;918;50.796;6.772;2022-07-23T07:08:31;13.07;;;11.97;;
1837;SDS011;918;50.796;6.772;2022-07-23T07:10:57;13.13;;;11.83;;
1837;SDS011;918;50.796;6.772;2022-07-23T07:13:22;12.73;;;11.73;;
1837;SDS011;918;50.796;6.772;2022-07-23T07:15:47;13.43;;;12.33;;
1837;SDS011;918;50.796;6.772;2022-07-23T07:18:12;11.73;;;10.93;;
1837;SDS011;918;50.796;6.772;2022-07-23T07:20:38;11.47;;;10.27;;
1837;SDS011;918;50.796;6.772;2022-07-23T07:23:04;12.13;;;10.97;;
1837;SDS011;918;50.796;6.772;2022-07-23T07:25:29;10.77;;;9.87;;
1837;SDS011;918;50.796;6.772;2022-07-23T07:27:54;9.53;;;8.80;;
1837;SDS011;918;50.796;6.772;2022-07-23T07:30:19;9.50;;;8.70;;
1837;SDS011;918;50.796;6.772;2022-07-23T07:32:45;11.80;;;10.90;;
1837;SDS011;918;50.796;6.772;2022-07-23T07:35:10;10.90;;;10.00;;
1837;SDS011;918;50.796;6.772;2022-07-23T07:37:35;11.07;;;10.17;;
1837;SDS011;918;50.796;6.772;2022-07-23T07:40:00;8.77;;;8.13;;
1837;SDS011;918;50.796;6.772;2022-07-23T07:42:26;10.47;;;9.60;;
1837;SDS011;918;50.796;6.772;2022-07-23T07:44:51;10.70;;;9.73;;
1837;SDS011;918;50.796;6.772;2022-07-23T07:47:17;9.87;;;9.17;;
1837;SDS011;918;50.796;6.772;2022-07-23T07:49:42;10.80;;;9.90;;
1837;SDS011;918;50.796;6.772;2022-07-23T07:52:08;10.73;;;9.93;;
1837;SDS011;918;50.796;6.772;2022-07-23T07:54:33;10.60;;;9.70;;
1837;SDS011;918;50.796;6.772;2022-07-23T07:56:58;12.30;;;11.27;;
1837;SDS011;918;50.796;6.772;2022-07-23T07:59:24;11.20;;;10.20;;
1837;SDS011;918;50.796;6.772;2022-07-23T08:01:50;11.17;;;10.27;;
1837;SDS011;918;50.796;6.772;2022-07-23T08:04:15;12.80;;;11.80;;
1837;SDS011;918;50.796;6.772;2022-07-23T08:06:40;11.67;;;10.83;;
1837;SDS011;918;50.796;6.772;2022-07-23T08:09:06;13.10;;;12.00;;
1837;SDS011;918;50.796;6.772;2022-07-23T08:11:31;12.07;;;11.13;;
1837;SDS011;918;50.796;6.772;2022-07-23T08:13:56;13.60;;;12.63;;
1837;SDS011;918;50.796;6.772;2022-07-23T08:16:21;13.50;;;12.50;;
1837;SDS011;918;50.796;6.772;2022-07-23T08:18:47;13.50;;;12.47;;
1837;SDS011;918;50.796;6.772;2022-07-23T08:21:12;12.40;;;11.30;;
1837;SDS011;918;50.796;6.772;2022-07-23T08:23:37;13.40;;;12.20;;
1837;SDS011;918;50.796;6.772;2022-07-23T08:26:02;14.30;;;13.27;;
1837;SDS011;918;50.796;6.772;2022-07-23T08:28:28;14.30;;;13.10;;
1837;SDS011;918;50.796;6.772;2022-07-23T08:30:53;14.77;;;13.57;;
1837;SDS011;918;50.796;6.772;2022-07-23T08:33:18;13.23;;;12.33;;
1837;SDS011;918;50.796;6.772;2022-07-23T08:35:45;12.50;;;11.33;;
1837;SDS011;918;50.796;6.772;2022-07-23T08:38:13;16.33;;;15.03;;
1837;SDS011;918;50.796;6.772;2022-07-23T08:40:40;14.80;;;13.70;;
1837;SDS011;918;50.796;6.772;2022-07-23T08:43:08;13.30;;;12.20;;
1837;SDS011;918;50.796;6.772;2022-07-23T08:45:39;14.33;;;13.20;;
1837;SDS011;918;50.796;6.772;2022-07-23T08:48:07;13.43;;;12.17;;
1837;SDS011;918;50.796;6.772;2022-07-23T08:50:34;14.13;;;12.97;;
1837;SDS011;918;50.796;6.772;2022-07-23T08:53:05;12.90;;;11.70;;
1837;SDS011;918;50.796;6.772;2022-07-23T08:55:31;14.43;;;13.30;;
1837;SDS011;918;50.796;6.772;2022-07-23T08:57:56;14.20;;;13.17;;
1837;SDS011;918;50.796;6.772;2022-07-23T09:00:22;14.43;;;13.33;;
1837;SDS011;918;50.796;6.772;2022-07-23T09:02:47;15.53;;;14.23;;
1837;SDS011;918;50.796;6.772;2022-07-23T09:05:14;16.13;;;14.73;;
1837;SDS011;918;50.796;6.772;2022-07-23T09:10:34;12.80;;;11.90;;
1837;SDS011;918;50.796;6.772;2022-07-23T09:13:27;12.80;;;11.87;;
1837;SDS011;918;50.796;6.772;2022-07-23T09:16:04;14.17;;;12.90;;
1837;SDS011;918;50.796;6.772;2022-07-23T09:18:37;14.83;;;13.73;;
1837;SDS011;918;50.796;6.772;2022-07-23T09:23:43;16.53;;;15.23;;
1837;SDS011;918;50.796;6.772;2022-07-23T09:26:20;15.47;;;14.40;;
1837;SDS011;918;50.796;6.772;2022-07-23T09:28:51;14.63;;;13.43;;
1837;SDS011;918;50.796;6.772;2022-07-23T09:31:17;15.90;;;14.70;;
1837;SDS011;918;50.796;6.772;2022-07-23T09:33:42;17.87;;;16.53;;
1837;SDS011;918;50.796;6.772;2022-07-23T09:36:08;16.03;;;14.73;;
1837;SDS011;918;50.796;6.772;2022-07-23T09:38:34;16.97;;;15.73;;
1837;SDS011;918;50.796;6.772;2022-07-23T09:41:09;15.27;;;14.17;;
1837;SDS011;918;50.796;6.772;2022-07-23T09:43:35;15.70;;;14.40;;
1837;SDS011;918;50.796;6.772;2022-07-23T09:48:49;17.87;;;16.47;;
1837;SDS011;918;50.796;6.772;2022-07-23T09:51:17;16.00;;;14.77;;
1837;SDS011;918;50.796;6.772;2022-07-23T09:53:50;18.23;;;16.73;;
1837;SDS011;918;50.796;6.772;2022-07-23T09:56:15;15.20;;;14.20;;
1837;SDS011;918;50.796;6.772;2022-07-23T09:58:41;14.33;;;13.30;;
1837;SDS011;918;50.796;6.772;2022-07-23T10:01:13;12.37;;;11.40;;
1837;SDS011;918;50.796;6.772;2022-07-23T10:03:39;12.87;;;12.07;;
1837;SDS011;918;50.796;6.772;2022-07-23T10:06:05;11.83;;;11.00;;
1837;SDS011;918;50.796;6.772;2022-07-23T10:08:31;12.53;;;11.73;;
1837;SDS011;918;50.796;6.772;2022-07-23T10:10:57;12.13;;;11.23;;
1837;SDS011;918;50.796;6.772;2022-07-23T10:13:24;14.10;;;12.90;;
1837;SDS011;918;50.796;6.772;2022-07-23T10:15:58;13.97;;;12.97;;
1837;SDS011;918;50.796;6.772;2022-07-23T10:18:23;13.83;;;12.83;;
1837;SDS011;918;50.796;6.772;2022-07-23T10:20:49;14.73;;;13.53;;
1837;SDS011;918;50.796;6.772;2022-07-23T10:23:18;12.33;;;11.50;;
1837;SDS011;918;50.796;6.772;2022-07-23T10:25:51;13.43;;;12.43;;
1837;SDS011;918;50.796;6.772;2022-07-23T10:28:41;12.83;;;12.03;;
1837;SDS011;918;50.796;6.772;2022-07-23T10:37:07;12.50;;;11.50;;
1837;SDS011;918;50.796;6.772;2022-07-23T10:39:36;11.10;;;10.40;;
1837;SDS011;918;50.796;6.772;2022-07-23T10:42:09;11.67;;;10.87;;
1837;SDS011;918;50.796;6.772;2022-07-23T10:44:39;13.07;;;12.27;;
1837;SDS011;918;50.796;6.772;2022-07-23T10:47:07;14.63;;;13.20;;
1837;SDS011;918;50.796;6.772;2022-07-23T10:49:48;13.33;;;12.33;;
1837;SDS011;918;50.796;6.772;2022-07-23T10:54:49;15.10;;;13.90;;
1837;SDS011;918;50.796;6.772;2022-07-23T10:57:17;13.77;;;12.37;;
1837;SDS011;918;50.796;6.772;2022-07-23T11:02:47;14.03;;;12.83;;
1837;SDS011;918;50.796;6.772;2022-07-23T11:05:16;13.20;;;12.30;;
1837;SDS011;918;50.796;6.772;2022-07-23T11:24:02;10.27;;;9.60;;
1837;SDS011;918;50.796;6.772;2022-07-23T11:32:02;8.50;;;7.80;;
1837;SDS011;918;50.796;6.772;2022-07-23T11:34:30;7.80;;;7.20;;
1837;SDS011;918;50.796;6.772;2022-07-23T11:36:56;8.10;;;7.60;;
1837;SDS011;918;50.796;6.772;2022-07-23T11:39:21;7.23;;;6.60;;
1837;SDS011;918;50.796;6.772;2022-07-23T11:41:50;10.30;;;9.63;;
1837;SDS011;918;50.796;6.772;2022-07-23T11:44:25;9.43;;;8.63;;
1837;SDS011;918;50.796;6.772;2022-07-23T11:46:58;7.70;;;7.10;;
1837;SDS011;918;50.796;6.772;2022-07-23T11:49:24;8.00;;;7.40;;
1837;SDS011;918;50.796;6.772;2022-07-23T11:52:03;8.03;;;7.33;;
1837;SDS011;918;50.796;6.772;2022-07-23T11:54:32;8.80;;;8.20;;
1837;SDS011;918;50.796;6.772;2022-07-23T11:56:59;7.60;;;7.07;;
1837;SDS011;918;50.796;6.772;2022-07-23T11:59:25;7.93;;;7.40;;
1837;SDS011;918;50.796;6.772;2022-07-23T12:02:02;9.27;;;8.57;;
1837;SDS011;918;50.796;6.772;2022-07-23T12:07:23;6.63;;;6.17;;
1837;SDS011;918;50.796;6.772;2022-07-23T12:09:52;8.07;;;7.40;;
1837;SDS011;918;50.796;6.772;2022-07-23T12:12:17;7.00;;;6.50;;
1837;SDS011;918;50.796;6.772;2022-07-23T12:17:18;8.70;;;8.00;;
1837;SDS011;918;50.796;6.772;2022-07-23T12:19:44;7.60;;;7.00;;
1837;SDS011;918;50.796;6.772;2022-07-23T12:22:09;7.70;;;7.20;;
1837;SDS011;918;50.796;6.772;2022-07-23T12:27:23;8.67;;;8.00;;
1837;SDS011;918;50.796;6.772;2022-07-23T12:29:49;8.40;;;7.70;;
1837;SDS011;918;50.796;6.772;2022-07-23T12:32:23;7.03;;;6.53;;
1837;SDS011;918;50.796;6.772;2022-07-23T12:34:51;7.97;;;7.30;;
1837;SDS011;918;50.796;6.772;2022-07-23T12:37:28;8.07;;;7.47;;
1837;SDS011;918;50.796;6.772;2022-07-23T12:39:54;8.27;;;7.60;;
1837;SDS011;918;50.796;6.772;2022-07-23T12:42:20;10.83;;;7.13;;
1837;SDS011;918;50.796;6.772;2022-07-23T12:45:05;7.50;;;6.87;;
1837;SDS011;918;50.796;6.772;2022-07-23T12:47:49;8.13;;;7.43;;
1837;SDS011;918;50.796;6.772;2022-07-23T12:53:15;6.10;;;5.70;;
1837;SDS011;918;50.796;6.772;2022-07-23T12:55:42;5.70;;;5.30;;
1837;SDS011;918;50.796;6.772;2022-07-23T12:58:10;5.10;;;4.80;;
1837;SDS011;918;50.796;6.772;2022-07-23T13:00:52;5.63;;;5.13;;
1837;SDS011;918;50.796;6.772;2022-07-23T13:05:47;5.57;;;5.07;;
1837;SDS011;918;50.796;6.772;2022-07-23T13:08:12;4.20;;;4.00;;
1837;SDS011;918;50.796;6.772;2022-07-23T13:10:38;4.80;;;4.50;;
1837;SDS011;918;50.796;6.772;2022-07-23T13:13:08;5.23;;;4.93;;
1837;SDS011;918;50.796;6.772;2022-07-23T13:15:34;4.67;;;4.37;;
1837;SDS011;918;50.796;6.772;2022-07-23T13:18:00;4.87;;;4.47;;
1837;SDS011;918;50.796;6.772;2022-07-23T13:20:25;4.50;;;4.10;;
1837;SDS011;918;50.796;6.772;2022-07-23T13:22:50;5.53;;;5.13;;
1837;SDS011;918;50.796;6.772;2022-07-23T13:25:15;5.40;;;5.00;;
1837;SDS011;918;50.796;6.772;2022-07-23T13:27:41;5.30;;;5.00;;
1837;SDS011;918;50.796;6.772;2022-07-23T13:30:06;5.40;;;5.00;;
1837;SDS011;918;50.796;6.772;2022-07-23T13:32:34;4.70;;;4.40;;
1837;SDS011;918;50.796;6.772;2022-07-23T13:34:59;5.43;;;4.57;;
1837;SDS011;918;50.796;6.772;2022-07-23T13:37:24;5.23;;;4.83;;
1837;SDS011;918;50.796;6.772;2022-07-23T13:39:50;4.43;;;4.13;;
1837;SDS011;918;50.796;6.772;2022-07-23T13:42:15;4.63;;;4.23;;
1837;SDS011;918;50.796;6.772;2022-07-23T13:44:40;5.37;;;4.80;;
1837;SDS011;918;50.796;6.772;2022-07-23T13:47:05;5.67;;;5.23;;
1837;SDS011;918;50.796;6.772;2022-07-23T13:49:31;4.57;;;4.27;;
1837;SDS011;918;50.796;6.772;2022-07-23T13:51:56;5.60;;;5.07;;
1837;SDS011;918;50.796;6.772;2022-07-23T13:54:22;4.10;;;3.80;;
1837;SDS011;918;50.796;6.772;2022-07-23T13:56:48;4.70;;;4.40;;
1837;SDS011;918;50.796;6.772;2022-07-23T13:59:13;4.37;;;4.10;;
1837;SDS011;918;50.796;6.772;2022-07-23T14:01:39;4.57;;;4.27;;
1837;SDS011;918;50.796;6.772;2022-07-23T14:04:04;7.33;;;4.70;;
1837;SDS011;918;50.796;6.772;2022-07-23T14:06:30;6.33;;;4.40;;
1837;SDS011;918;50.796;6.772;2022-07-23T14:08:55;4.60;;;4.20;;
1837;SDS011;918;50.796;6.772;2022-07-23T14:11:20;4.20;;;3.90;;
1837;SDS011;918;50.796;6.772;2022-07-23T14:13:45;4.57;;;4.27;;
1837;SDS011;918;50.796;6.772;2022-07-23T14:16:12;4.00;;;3.80;;
1837;SDS011;918;50.796;6.772;2022-07-23T14:18:37;4.30;;;4.00;;
1837;SDS011;918;50.796;6.772;2022-07-23T14:21:03;4.20;;;3.90;;
1837;SDS011;918;50.796;6.772;2022-07-23T14:23:28;4.40;;;4.20;;
1837;SDS011;918;50.796;6.772;2022-07-23T14:25:56;4.23;;;3.93;;
1837;SDS011;918;50.796;6.772;2022-07-23T14:28:22;4.40;;;4.00;;
1837;SDS011;918;50.796;6.772;2022-07-23T14:30:49;4.63;;;4.17;;
1837;SDS011;918;50.796;6.772;2022-07-23T14:33:15;5.57;;;5.23;;
1837;SDS011;918;50.796;6.772;2022-07-23T14:35:41;4.23;;;4.00;;
1837;SDS011;918;50.796;6.772;2022-07-23T14:38:07;4.53;;;4.13;;
1837;SDS011;918;50.796;6.772;2022-07-23T14:40:32;4.20;;;3.90;;
1837;SDS011;918;50.796;6.772;2022-07-23T14:42:58;4.90;;;4.37;;
1837;SDS011;918;50.796;6.772;2022-07-23T14:45:24;4.70;;;4.40;;
1837;SDS011;918;50.796;6.772;2022-07-23T14:47:49;4.77;;;4.37;;
1837;SDS011;918;50.796;6.772;2022-07-23T14:50:14;4.10;;;3.80;;
1837;SDS011;918;50.796;6.772;2022-07-23T14:52:40;4.10;;;3.70;;
1837;SDS011;918;50.796;6.772;2022-07-23T14:55:05;4.77;;;4.47;;
1837;SDS011;918;50.796;6.772;2022-07-23T14:57:31;4.30;;;3.90;;
1837;SDS011;918;50.796;6.772;2022-07-23T14:59:57;3.97;;;3.67;;
1837;SDS011;918;50.796;6.772;2022-07-23T15:02:22;3.83;;;3.60;;
1837;SDS011;918;50.796;6.772;2022-07-23T15:04:47;5.03;;;3.90;;
1837;SDS011;918;50.796;6.772;2022-07-23T15:07:13;4.37;;;3.97;;
1837;SDS011;918;50.796;6.772;2022-07-23T15:09:38;4.60;;;3.83;;
1837;SDS011;918;50.796;6.772;2022-07-23T15:12:03;3.97;;;3.77;;
1837;SDS011;918;50.796;6.772;2022-07-23T15:14:29;4.40;;;3.80;;
1837;SDS011;918;50.796;6.772;2022-07-23T15:16:55;3.27;;;3.07;;
1837;SDS011;918;50.796;6.772;2022-07-23T15:19:20;5.07;;;3.77;;
1837;SDS011;918;50.796;6.772;2022-07-23T15:21:45;3.53;;;3.20;;
1837;SDS011;918;50.796;6.772;2022-07-23T15:24:11;3.90;;;3.60;;
1837;SDS011;918;50.796;6.772;2022-07-23T15:26:36;4.00;;;3.70;;
1837;SDS011;918;50.796;6.772;2022-07-23T15:29:02;3.23;;;3.03;;
1837;SDS011;918;50.796;6.772;2022-07-23T15:31:28;3.83;;;3.53;;
1837;SDS011;918;50.796;6.772;2022-07-23T15:33:54;4.27;;;3.67;;
1837;SDS011;918;50.796;6.772;2022-07-23T15:36:19;3.20;;;3.00;;
1837;SDS011;918;50.796;6.772;2022-07-23T15:38:45;3.03;;;2.83;;
1837;SDS011;918;50.796;6.772;2022-07-23T15:41:11;3.70;;;3.30;;
1837;SDS011;918;50.796;6.772;2022-07-23T15:43:37;3.50;;;3.20;;
1837;SDS011;918;50.796;6.772;2022-07-23T15:46:03;3.67;;;3.40;;
1837;SDS011;918;50.796;6.772;2022-07-23T15:48:29;3.83;;;3.63;;
1837;SDS011;918;50.796;6.772;2022-07-23T15:50:54;3.70;;;3.50;;
1837;SDS011;918;50.796;6.772;2022-07-23T15:53:20;3.30;;;3.07;;
1837;SDS011;918;50.796;6.772;2022-07-23T15:55:45;8.60;;;5.23;;
1837;SDS011;918;50.796;6.772;2022-07-23T15:58:11;3.83;;;3.10;;
1837;SDS011;918;50.796;6.772;2022-07-23T16:00:37;3.57;;;3.27;;